Time,TemperatureF,DewpointF,PressureIn,WindDirection,WindDirectionDegrees,WindSpeedMPH,WindSpeedGustMPH,Humidity,HourlyPrecipIn,Conditions,Clouds,dailyrainin,SoftwareType,DateUTC
2013-04-07 00:03:00,28.0,13.0,-100.00,SW,225,1.0,2.0,50,0.00,,,-99.99,,2013-04-07 04:03:00,
2013-04-07 00:15:00,28.0,12.0,-100.00,South,170,1.0,1.0,50,0.00,,,-99.99,,2013-04-07 04:15:00,
2013-04-07 00:23:00,28.0,13.0,-100.00,East,100,0.0,1.0,53,0.00,,,-99.99,,2013-04-07 04:23:00,
2013-04-07 00:32:00,28.0,14.0,-100.00,SE,135,0.0,1.0,54,0.00,,,-99.99,,2013-04-07 04:32:00,
2013-04-07 00:43:00,28.0,13.0,-100.00,South,170,0.0,1.0,53,0.00,,,-99.99,,2013-04-07 04:43:00,
2013-04-07 00:52:00,27.0,14.0,-100.00,South,170,0.0,1.0,57,0.00,,,-99.99,,2013-04-07 04:52:00,
2013-04-07 01:02:00,27.0,15.0,-100.00,North,350,0.0,1.0,57,0.00,,,-99.99,,2013-04-07 05:02:00,
2013-04-07 01:12:00,27.0,15.0,-100.00,North,350,0.0,1.0,58,0.00,,,-99.99,,2013-04-07 05:12:00,
2013-04-07 01:23:00,27.0,15.0,-100.00,East,80,0.0,1.0,60,0.00,,,-99.99,,2013-04-07 05:23:00,
2013-04-07 01:33:00,27.0,14.0,-100.00,South,180,0.0,1.0,57,0.00,,,-99.99,,2013-04-07 05:33:00,
2013-04-07 01:43:00,27.0,15.0,-100.00,East,80,0.0,1.0,59,0.00,,,-99.99,,2013-04-07 05:43:00,
2013-04-07 01:52:00,27.0,15.0,-100.00,WSW,250,0.0,1.0,59,0.00,,,-99.99,,2013-04-07 05:52:00,
2013-04-07 02:02:00,26.0,16.0,-100.00,SE,135,0.0,1.0,63,0.00,,,-99.99,,2013-04-07 06:02:00,
2013-04-07 02:12:00,26.0,15.0,-100.00,ESE,105,0.0,1.0,62,0.00,,,-99.99,,2013-04-07 06:12:00,
2013-04-07 02:22:00,26.0,16.0,-100.00,NNW,340,0.0,1.0,64,0.00,,,-99.99,,2013-04-07 06:22:00,
2013-04-07 02:32:00,26.0,16.0,-100.00,North,350,0.0,1.0,65,0.00,,,-99.99,,2013-04-07 06:32:00,
2013-04-07 02:43:00,26.0,16.0,-100.00,NW,325,1.0,2.0,64,0.00,,,-99.99,,2013-04-07 06:43:00,
2013-04-07 02:52:00,26.0,16.0,-100.00,South,170,0.0,1.0,64,0.00,,,-99.99,,2013-04-07 06:52:00,
2013-04-07 03:02:00,26.0,16.0,-100.00,North,350,0.0,1.0,65,0.00,,,-99.99,,2013-04-07 07:02:00,
2013-04-07 03:12:00,26.0,17.0,-100.00,NE,35,1.0,1.0,68,0.00,,,-99.99,,2013-04-07 07:12:00,
2013-04-07 03:22:00,26.0,17.0,-100.00,NW,315,1.0,2.0,68,0.00,,,-99.99,,2013-04-07 07:22:00,
2013-04-07 03:33:00,26.0,17.0,-100.00,NNW,340,1.0,1.0,67,0.00,,,-99.99,,2013-04-07 07:33:00,
2013-04-07 03:42:00,26.0,16.0,-100.00,ENE,70,0.0,1.0,67,0.00,,,-99.99,,2013-04-07 07:42:00,
2013-04-07 03:52:00,26.0,17.0,-100.00,East,100,0.0,1.0,69,0.00,,,-99.99,,2013-04-07 07:52:00,
2013-04-07 04:02:00,25.0,17.0,-100.00,SSE,160,0.0,2.0,69,0.00,,,-99.99,,2013-04-07 08:02:00,
2013-04-07 04:13:00,25.0,17.0,-100.00,WNW,295,1.0,1.0,69,0.00,,,-99.99,,2013-04-07 08:13:00,
2013-04-07 04:22:00,25.0,17.0,-100.00,NNW,330,0.0,1.0,70,0.00,,,-99.99,,2013-04-07 08:22:00,
2013-04-07 04:33:00,25.0,17.0,-100.00,South,170,0.0,1.0,71,0.00,,,-99.99,,2013-04-07 08:33:00,
2013-04-07 04:42:00,25.0,17.0,-100.00,WSW,240,0.0,1.0,71,0.00,,,-99.99,,2013-04-07 08:42:00,
2013-04-07 04:53:00,25.0,17.0,-100.00,SSW,195,0.0,1.0,71,0.00,,,-99.99,,2013-04-07 08:53:00,
2013-04-07 05:02:00,24.0,17.0,-100.00,NNW,330,1.0,1.0,72,0.00,,,-99.99,,2013-04-07 09:02:00,
2013-04-07 05:13:00,25.0,17.0,-100.00,NNW,335,1.0,2.0,72,0.00,,,-99.99,,2013-04-07 09:13:00,
2013-04-07 05:23:00,24.0,17.0,-100.00,NNW,330,0.0,1.0,72,0.00,,,-99.99,,2013-04-07 09:23:00,
2013-04-07 05:34:00,24.0,17.0,-100.00,SE,135,0.0,1.0,72,0.00,,,-99.99,,2013-04-07 09:34:00,
2013-04-07 05:43:00,25.0,17.0,-100.00,SSE,150,0.0,1.0,73,0.00,,,-99.99,,2013-04-07 09:43:00,
2013-04-07 05:53:00,24.0,17.0,-100.00,WSW,245,0.0,1.0,73,0.00,,,-99.99,,2013-04-07 09:53:00,
2013-04-07 06:04:00,24.0,17.0,-100.00,NW,315,0.0,1.0,73,0.00,,,-99.99,,2013-04-07 10:04:00,
2013-04-07 06:14:00,24.0,17.0,-100.00,SSE,160,0.0,1.0,73,0.00,,,-99.99,,2013-04-07 10:14:00,
2013-04-07 06:23:00,24.0,17.0,-100.00,West,270,1.0,2.0,74,0.00,,,-99.99,,2013-04-07 10:23:00,
2013-04-07 06:34:00,24.0,17.0,-100.00,SE,135,0.0,1.0,74,0.00,,,-99.99,,2013-04-07 10:34:00,
2013-04-07 06:43:00,24.0,17.0,-100.00,SW,225,1.0,2.0,74,0.00,,,-99.99,,2013-04-07 10:43:00,
2013-04-07 06:53:00,25.0,18.0,-100.00,WNW,300,1.0,2.0,74,0.00,,,-99.99,,2013-04-07 10:53:00,
2013-04-07 07:03:00,25.0,18.0,-100.00,WNW,285,1.0,2.0,74,0.00,,,-99.99,,2013-04-07 11:03:00,
2013-04-07 07:13:00,25.0,18.0,-100.00,East,80,0.0,2.0,74,0.00,,,-99.99,,2013-04-07 11:13:00,
2013-04-07 07:23:00,26.0,19.0,-100.00,West,270,1.0,2.0,74,0.00,,,-99.99,,2013-04-07 11:23:00,
2013-04-07 07:33:00,26.0,19.0,-100.00,East,90,0.0,1.0,74,0.00,,,-99.99,,2013-04-07 11:33:00,
2013-04-07 07:43:00,27.0,20.0,-100.00,SSW,200,1.0,2.0,74,0.00,,,-99.99,,2013-04-07 11:43:00,
2013-04-07 07:53:00,28.0,21.0,-100.00,West,280,0.0,1.0,73,0.00,,,-99.99,,2013-04-07 11:53:00,
2013-04-07 08:03:00,29.0,21.0,-100.00,ESE,110,1.0,2.0,72,0.00,,,-99.99,,2013-04-07 12:03:00,
2013-04-07 08:13:00,30.0,21.0,-100.00,South,175,1.0,3.0,68,0.00,,,-99.99,,2013-04-07 12:13:00,
2013-04-07 08:23:00,32.0,21.0,-100.00,West,260,0.0,2.0,64,0.00,,,-99.99,,2013-04-07 12:23:00,
2013-04-07 08:34:00,33.0,21.0,-100.00,South,185,2.0,4.0,61,0.00,,,-99.99,,2013-04-07 12:34:00,
2013-04-07 08:43:00,35.0,21.0,-100.00,South,190,3.0,6.0,58,0.00,,,-99.99,,2013-04-07 12:43:00,
2013-04-07 08:53:00,36.0,21.0,-100.00,SW,220,2.0,4.0,55,0.00,,,-99.99,,2013-04-07 12:53:00,
2013-04-07 09:05:00,36.0,21.0,-100.00,SSW,205,4.0,6.0,52,0.00,,,-99.99,,2013-04-07 13:05:00,
2013-04-07 09:13:00,38.0,21.0,-100.00,SW,215,3.0,6.0,50,0.00,,,-99.99,,2013-04-07 13:13:00,
2013-04-07 09:23:00,38.0,21.0,-100.00,SW,215,5.0,7.0,49,0.00,,,-99.99,,2013-04-07 13:23:00,
2013-04-07 09:33:00,39.0,21.0,-100.00,WSW,240,3.0,6.0,47,0.00,,,-99.99,,2013-04-07 13:33:00,
2013-04-07 09:43:00,40.0,20.0,-100.00,SSW,200,4.0,11.0,43,0.00,,,-99.99,,2013-04-07 13:43:00,
2013-04-07 09:52:00,42.0,20.0,-100.00,SW,220,3.0,12.0,41,0.00,,,-99.99,,2013-04-07 13:52:00,
2013-04-07 10:03:00,44.0,19.0,-100.00,South,190,3.0,7.0,37,0.00,,,-99.99,,2013-04-07 14:03:00,
2013-04-07 10:13:00,44.0,17.0,-100.00,SSW,195,7.0,15.0,32,0.00,,,-99.99,,2013-04-07 14:13:00,
2013-04-07 10:23:00,46.0,18.0,-100.00,SSW,200,4.0,13.0,32,0.00,,,-99.99,,2013-04-07 14:23:00,
2013-04-07 10:33:00,46.0,17.0,-100.00,SW,215,6.0,17.0,30,0.00,,,-99.99,,2013-04-07 14:33:00,
2013-04-07 10:44:00,47.0,17.0,-100.00,SSW,205,7.0,14.0,30,0.00,,,-99.99,,2013-04-07 14:44:00,
2013-04-07 10:53:00,47.0,17.0,-100.00,West,275,8.0,16.0,28,0.00,,,-99.99,,2013-04-07 14:53:00,
2013-04-07 11:03:00,47.0,17.0,-100.00,SSW,200,9.0,19.0,29,0.00,,,-99.99,,2013-04-07 15:03:00,
2013-04-07 11:13:00,47.0,18.0,-100.00,SSW,205,7.0,16.0,30,0.00,,,-99.99,,2013-04-07 15:13:00,
2013-04-07 11:23:00,47.0,17.0,-100.00,SW,215,9.0,17.0,30,0.00,,,-99.99,,2013-04-07 15:23:00,
2013-04-07 11:35:00,46.0,17.0,-100.00,SW,220,7.0,20.0,30,0.00,,,-99.99,,2013-04-07 15:35:00,
2013-04-07 11:45:00,47.0,18.0,-100.00,WSW,250,6.0,16.0,31,0.00,,,-99.99,,2013-04-07 15:45:00,
2013-04-07 11:53:00,47.0,18.0,-100.00,SSW,195,7.0,13.0,31,0.00,,,-99.99,,2013-04-07 15:53:00,
2013-04-07 12:05:00,47.0,18.0,-100.00,South,190,7.0,17.0,31,0.00,,,-99.99,,2013-04-07 16:05:00,
2013-04-07 12:14:00,48.0,18.0,-100.00,SSW,200,9.0,15.0,28,0.00,,,-99.99,,2013-04-07 16:14:00,
2013-04-07 12:25:00,51.0,18.0,-100.00,SSW,195,6.0,16.0,27,0.00,,,-99.99,,2013-04-07 16:25:00,
2013-04-07 12:34:00,50.0,17.0,-100.00,South,190,11.0,20.0,26,0.00,,,-99.99,,2013-04-07 16:34:00,
2013-04-07 12:43:00,51.0,18.0,-100.00,SW,230,13.0,24.0,27,0.00,,,-99.99,,2013-04-07 16:43:00,
2013-04-07 12:53:00,50.0,20.0,-100.00,South,185,10.0,21.0,29,0.00,,,-99.99,,2013-04-07 16:53:00,
2013-04-07 13:05:00,52.0,20.0,-100.00,South,185,7.0,17.0,28,0.00,,,-99.99,,2013-04-07 17:05:00,
2013-04-07 13:14:00,53.0,21.0,-100.00,SW,220,7.0,16.0,29,0.00,,,-99.99,,2013-04-07 17:14:00,
2013-04-07 13:24:00,52.0,21.0,-100.00,SSW,205,7.0,19.0,28,0.00,,,-99.99,,2013-04-07 17:24:00,
2013-04-07 13:33:00,52.0,20.0,-100.00,WSW,245,9.0,19.0,27,0.00,,,-99.99,,2013-04-07 17:33:00,
2013-04-07 13:43:00,54.0,20.0,-100.00,SSW,200,11.0,20.0,26,0.00,,,-99.99,,2013-04-07 17:43:00,
2013-04-07 13:53:00,54.0,17.0,-100.00,SW,225,11.0,22.0,23,0.00,,,-99.99,,2013-04-07 17:53:00,
2013-04-07 14:03:00,56.0,18.0,-100.00,WSW,250,9.0,17.0,22,0.00,,,-99.99,,2013-04-07 18:03:00,
2013-04-07 14:14:00,55.0,17.0,-100.00,SSW,210,9.0,22.0,22,0.00,,,-99.99,,2013-04-07 18:14:00,
2013-04-07 14:23:00,56.0,18.0,-100.00,SW,230,12.0,22.0,22,0.00,,,-99.99,,2013-04-07 18:23:00,
2013-04-07 14:33:00,54.0,19.0,-100.00,SSW,205,8.0,21.0,24,0.00,,,-99.99,,2013-04-07 18:33:00,
2013-04-07 14:43:00,54.0,21.0,-100.00,WSW,255,9.0,20.0,26,0.00,,,-99.99,,2013-04-07 18:43:00,
2013-04-07 14:52:00,56.0,22.0,-100.00,SW,235,7.0,18.0,26,0.00,,,-99.99,,2013-04-07 18:52:00,
2013-04-07 15:03:00,57.0,23.0,-100.00,SSW,195,9.0,20.0,26,0.00,,,-99.99,,2013-04-07 19:03:00,
2013-04-07 15:13:00,56.0,23.0,-100.00,SW,215,11.0,22.0,27,0.00,,,-99.99,,2013-04-07 19:13:00,
2013-04-07 15:23:00,56.0,23.0,-100.00,WSW,240,7.0,17.0,27,0.00,,,-99.99,,2013-04-07 19:23:00,
2013-04-07 15:33:00,55.0,23.0,-100.00,SW,215,9.0,25.0,28,0.00,,,-99.99,,2013-04-07 19:33:00,
2013-04-07 15:43:00,56.0,24.0,-100.00,SSW,210,11.0,22.0,29,0.00,,,-99.99,,2013-04-07 19:43:00,
2013-04-07 15:53:00,57.0,25.0,-100.00,SSW,210,10.0,19.0,28,0.00,,,-99.99,,2013-04-07 19:53:00,
2013-04-07 16:03:00,58.0,26.0,-100.00,West,275,7.0,17.0,29,0.00,,,-99.99,,2013-04-07 20:03:00,
2013-04-07 16:13:00,56.0,26.0,-100.00,SSW,210,8.0,17.0,31,0.00,,,-99.99,,2013-04-07 20:13:00,
2013-04-07 16:23:00,56.0,27.0,-100.00,West,260,9.0,20.0,32,0.00,,,-99.99,,2013-04-07 20:23:00,
2013-04-07 16:33:00,55.0,27.0,-100.00,SW,215,9.0,18.0,34,0.00,,,-99.99,,2013-04-07 20:33:00,
2013-04-07 16:44:00,55.0,27.0,-100.00,SW,230,9.0,18.0,34,0.00,,,-99.99,,2013-04-07 20:44:00,
2013-04-07 16:53:00,54.0,28.0,-100.00,SSW,210,7.0,17.0,36,0.00,,,-99.99,,2013-04-07 20:53:00,
2013-04-07 17:04:00,54.0,29.0,-100.00,SSW,210,9.0,22.0,38,0.00,,,-99.99,,2013-04-07 21:04:00,
2013-04-07 17:14:00,54.0,30.0,-100.00,SW,215,9.0,19.0,39,0.00,,,-99.99,,2013-04-07 21:14:00,
2013-04-07 17:23:00,54.0,30.0,-100.00,SSW,210,11.0,21.0,40,0.00,,,-99.99,,2013-04-07 21:23:00,
2013-04-07 17:35:00,54.0,30.0,-100.00,SSW,210,8.0,19.0,39,0.00,,,-99.99,,2013-04-07 21:35:00,
2013-04-07 17:45:00,53.0,31.0,-100.00,SW,215,8.0,21.0,42,0.00,,,-99.99,,2013-04-07 21:45:00,
2013-04-07 17:53:00,53.0,31.0,-100.00,WSW,245,12.0,26.0,43,0.00,,,-99.99,,2013-04-07 21:53:00,
2013-04-07 18:05:00,53.0,31.0,-100.00,West,260,7.0,22.0,44,0.00,,,-99.99,,2013-04-07 22:05:00,
2013-04-07 18:15:00,53.0,32.0,-100.00,SW,215,12.0,25.0,44,0.00,,,-99.99,,2013-04-07 22:15:00,
2013-04-07 18:24:00,52.0,31.0,-100.00,WSW,245,12.0,23.0,44,0.00,,,-99.99,,2013-04-07 22:24:00,
2013-04-07 18:34:00,52.0,31.0,-100.00,WSW,240,7.0,24.0,45,0.00,,,-99.99,,2013-04-07 22:34:00,
2013-04-07 18:43:00,51.0,32.0,-100.00,SW,225,9.0,18.0,46,0.00,,,-99.99,,2013-04-07 22:43:00,
2013-04-07 18:53:00,51.0,32.0,-100.00,SW,230,9.0,16.0,47,0.00,,,-99.99,,2013-04-07 22:53:00,
2013-04-07 19:04:00,51.0,32.0,-100.00,SW,220,6.0,12.0,47,0.00,,,-99.99,,2013-04-07 23:04:00,
2013-04-07 19:13:00,51.0,32.0,-100.00,SSW,210,7.0,12.0,47,0.00,,,-99.99,,2013-04-07 23:13:00,
2013-04-07 19:23:00,51.0,32.0,-100.00,South,190,7.0,17.0,48,0.00,,,-99.99,,2013-04-07 23:23:00,
2013-04-07 19:33:00,50.0,32.0,-100.00,SW,220,7.0,15.0,49,0.00,,,-99.99,,2013-04-07 23:33:00,
2013-04-07 19:43:00,50.0,32.0,-100.00,SSW,210,6.0,12.0,50,0.00,,,-99.99,,2013-04-07 23:43:00,
2013-04-07 19:52:00,50.0,32.0,-100.00,SW,215,4.0,11.0,50,0.00,,,-99.99,,2013-04-07 23:52:00,
2013-04-07 20:03:00,50.0,32.0,-100.00,SW,220,6.0,11.0,50,0.00,,,-99.99,,2013-04-08 00:03:00,
2013-04-07 20:13:00,49.0,32.0,-100.00,SW,230,7.0,17.0,51,0.00,,,-99.99,,2013-04-08 00:13:00,
2013-04-07 20:23:00,49.0,33.0,-100.00,WSW,245,7.0,17.0,52,0.00,,,-99.99,,2013-04-08 00:23:00,
2013-04-07 20:33:00,49.0,33.0,-100.00,SW,235,6.0,12.0,53,0.00,,,-99.99,,2013-04-08 00:33:00,
2013-04-07 20:42:00,49.0,33.0,-100.00,SW,225,7.0,16.0,55,0.00,,,-99.99,,2013-04-08 00:42:00,
2013-04-07 20:52:00,49.0,34.0,-100.00,SSW,195,7.0,17.0,56,0.00,,,-99.99,,2013-04-08 00:52:00,
2013-04-07 21:03:00,48.0,34.0,-100.00,SW,215,7.0,12.0,57,0.00,,,-99.99,,2013-04-08 01:03:00,
2013-04-07 21:13:00,48.0,35.0,-100.00,South,190,6.0,14.0,59,0.00,,,-99.99,,2013-04-08 01:13:00,
2013-04-07 21:23:00,48.0,35.0,-100.00,SW,230,6.0,11.0,60,0.00,,,-99.99,,2013-04-08 01:23:00,
2013-04-07 21:34:00,48.0,35.0,-100.00,SW,215,4.0,11.0,61,0.00,,,-99.99,,2013-04-08 01:34:00,
2013-04-07 21:44:00,47.0,36.0,-100.00,SSW,210,6.0,12.0,63,0.00,,,-99.99,,2013-04-08 01:44:00,
2013-04-07 21:54:00,47.0,36.0,-100.00,SW,225,4.0,9.0,64,0.00,,,-99.99,,2013-04-08 01:54:00,
2013-04-07 22:03:00,47.0,36.0,-100.00,SSW,200,6.0,9.0,65,0.00,,,-99.99,,2013-04-08 02:03:00,
2013-04-07 22:12:00,47.0,36.0,-100.00,SW,225,4.0,9.0,66,0.00,,,-99.99,,2013-04-08 02:12:00,
2013-04-07 22:22:00,47.0,36.0,-100.00,West,260,4.0,11.0,66,0.00,,,-99.99,,2013-04-08 02:22:00,
2013-04-07 22:33:00,47.0,37.0,-100.00,SW,215,4.0,11.0,67,0.00,,,-99.99,,2013-04-08 02:33:00,
2013-04-07 22:53:00,47.0,37.0,-100.00,SW,220,6.0,12.0,68,0.00,,,-99.99,,2013-04-08 02:53:00,
2013-04-07 23:09:00,46.0,37.0,-100.00,SW,215,4.0,12.0,69,0.00,,,-99.99,,2013-04-08 03:09:00,
2013-04-07 23:16:00,46.0,37.0,-100.00,SW,225,4.0,11.0,69,0.00,,,-99.99,,2013-04-08 03:16:00,
2013-04-07 23:25:00,46.0,37.0,-100.00,SW,215,6.0,12.0,70,0.00,,,-99.99,,2013-04-08 03:25:00,
2013-04-07 23:36:00,46.0,37.0,-100.00,WSW,250,5.0,9.0,70,0.00,,,-99.99,,2013-04-08 03:36:00,
2013-04-07 23:48:00,46.0,37.0,-100.00,SW,225,3.0,9.0,71,0.00,,,-99.99,,2013-04-08 03:48:00,
2013-04-07 23:53:00,46.0,37.0,-100.00,West,275,5.0,12.0,71,0.00,,,-99.99,,2013-04-08 03:53:00,